Time;durP1;ratioP1;P1;durP2;ratioP2;P2;SDS_P1;SDS_P2;PMS_P1;PMS_P2;Temp;Humidity;BMP_temperature;BMP_pressure;BME280_temperature;BME280_humidity;BME280_pressure;Samples;Min_cycle;Max_cycle;Signal;HPM_P1;HPM_P2
2022/04/19 00:01:06;;;;;;;;;;;22.60;99.90;;;;;;4862841;29;20245;-76
2022/04/19 00:03:33;;;;;;;;;;;22.60;99.90;;;;;;4879265;29;20109;-75
2022/04/19 00:05:59;;;;;;;;;;;22.70;99.90;;;;;;4879484;29;19926;-75
2022/04/19 00:08:26;;;;;;;;;;;22.70;99.90;;;;;;4879435;29;19912;-76
2022/04/19 00:10:53;;;;;;;;;;;22.60;99.90;;;;;;4862831;29;19918;-76
2022/04/19 00:13:20;;;;;;;;;;;22.70;99.90;;;;;;4879528;29;20280;-76
2022/04/19 00:15:47;;;;;;;;;;;22.80;99.90;;;;;;4878985;29;19912;-75
2022/04/19 00:18:14;;;;;;;;;;;22.80;99.90;;;;;;4862617;29;19915;-76
2022/04/19 00:20:44;;;;;;;;;;;22.70;99.90;;;;;;4879507;29;20019;-74
2022/04/19 00:23:15;;;;;;;;;;;22.90;99.90;;;;;;4879375;29;19955;-75
2022/04/19 00:25:43;;;;;;;;;;;22.90;99.90;;;;;;4878977;29;20014;-74
2022/04/19 00:28:10;;;;;;;;;;;23.00;99.90;;;;;;4879485;29;19919;-74
2022/04/19 00:30:37;;;;;;;;;;;23.00;99.90;;;;;;4879524;29;19916;-76
2022/04/19 00:33:04;;;;;;;;;;;23.10;99.90;;;;;;4879300;29;20375;-74
2022/04/19 00:35:31;;;;;;;;;;;23.20;99.90;;;;;;4878941;29;20477;-75
2022/04/19 00:37:59;;;;;;;;;;;23.30;99.90;;;;;;4879331;29;20008;-75
2022/04/19 00:40:26;;;;;;;;;;;23.20;99.90;;;;;;4879374;29;19916;-76
2022/04/19 00:42:55;;;;;;;;;;;23.30;99.90;;;;;;4879131;29;20055;-77
2022/04/19 00:45:25;;;;;;;;;;;23.40;99.90;;;;;;4879263;29;19926;-75
2022/04/19 00:47:53;;;;;;;;;;;23.40;99.90;;;;;;4878832;29;19918;-75
2022/04/19 00:50:22;;;;;;;;;;;23.40;99.90;;;;;;4879176;29;19911;-75
2022/04/19 00:52:48;;;;;;;;;;;23.40;99.90;;;;;;4879070;29;19916;-75
2022/04/19 00:55:15;;;;;;;;;;;23.40;99.90;;;;;;4879035;29;19912;-76
2022/04/19 00:57:43;;;;;;;;;;;23.40;99.90;;;;;;4879006;29;20007;-76
2022/04/19 01:00:12;;;;;;;;;;;23.60;99.90;;;;;;4879077;29;19912;-77
2022/04/19 01:02:39;;;;;;;;;;;23.80;99.90;;;;;;4878790;29;19915;-75
2022/04/19 01:05:06;;;;;;;;;;;23.90;99.90;;;;;;4879058;29;19926;-76
2022/04/19 01:07:33;;;;;;;;;;;24.00;99.90;;;;;;4881205;29;19912;-75
2022/04/19 01:10:00;;;;;;;;;;;24.50;99.90;;;;;;4882576;29;19919;-75
2022/04/19 01:15:17;;;;;;;;;;;25.30;99.90;;;;;;4882444;29;19919;-76
2022/04/19 01:17:44;;;;;;;;;;;25.70;99.90;;;;;;4882026;29;19970;-75
2022/04/19 01:20:14;;;;;;;;;;;25.90;99.90;;;;;;4882266;29;19919;-76
2022/04/19 01:22:42;;;;;;;;;;;26.00;99.90;;;;;;4882055;29;19920;-75
2022/04/19 01:25:10;;;;;;;;;;;26.40;99.90;;;;;;4882105;29;20313;-75
2022/04/19 01:27:37;;;;;;;;;;;26.30;99.90;;;;;;4882226;29;19911;-75
2022/04/19 01:30:05;;;;;;;;;;;26.20;99.90;;;;;;4882651;29;20020;-74
2022/04/19 01:32:32;;;;;;;;;;;25.70;99.90;;;;;;4882824;29;19912;-75
2022/04/19 01:35:07;;;;;;;;;;;25.50;99.90;;;;;;4882584;29;19919;-74
2022/04/19 01:37:38;;;;;;;;;;;25.30;99.90;;;;;;4881833;29;20468;-76
2022/04/19 01:40:17;;;;;;;;;;;25.10;99.90;;;;;;4882056;29;19968;-76
2022/04/19 01:42:53;;;;;;;;;;;25.00;99.90;;;;;;4881998;29;20253;-75
2022/04/19 01:45:23;;;;;;;;;;;25.00;99.90;;;;;;4881600;29;20287;-76
2022/04/19 01:47:54;;;;;;;;;;;25.10;99.90;;;;;;4881617;29;19984;-76
2022/04/19 01:50:21;;;;;;;;;;;25.30;99.90;;;;;;4881918;29;19955;-76
2022/04/19 01:52:49;;;;;;;;;;;25.20;99.90;;;;;;4881989;29;20287;-76
2022/04/19 01:55:17;;;;;;;;;;;25.10;99.90;;;;;;4881646;29;19912;-76
2022/04/19 01:57:44;;;;;;;;;;;25.10;99.90;;;;;;4881552;29;19912;-76
2022/04/19 02:00:12;;;;;;;;;;;25.10;99.90;;;;;;4881615;29;20360;-77
2022/04/19 02:02:39;;;;;;;;;;;25.00;99.90;;;;;;4881476;29;19926;-77
2022/04/19 02:05:06;;;;;;;;;;;24.80;99.90;;;;;;4881646;29;20289;-75
2022/04/19 02:07:33;;;;;;;;;;;24.70;99.90;;;;;;4881367;29;20387;-75
2022/04/19 02:10:00;;;;;;;;;;;24.70;99.90;;;;;;4881574;29;19918;-76
2022/04/19 02:12:27;;;;;;;;;;;24.70;99.90;;;;;;4881677;29;19912;-75
2022/04/19 02:14:54;;;;;;;;;;;24.70;99.90;;;;;;4881414;29;19912;-76
2022/04/19 02:17:23;;;;;;;;;;;25.00;99.90;;;;;;4864534;29;19912;-75
2022/04/19 02:19:58;;;;;;;;;;;24.90;99.90;;;;;;4880676;29;19923;-75
2022/04/19 02:22:25;;;;;;;;;;;24.80;99.90;;;;;;4881315;29;19912;-74
2022/04/19 02:24:51;;;;;;;;;;;24.70;99.90;;;;;;4881246;29;20019;-75
2022/04/19 02:27:18;;;;;;;;;;;24.80;99.90;;;;;;4881093;29;20371;-75
2022/04/19 02:29:45;;;;;;;;;;;25.00;99.90;;;;;;4880864;29;20398;-76
2022/04/19 02:32:12;;;;;;;;;;;25.10;99.90;;;;;;4881036;29;20019;-77
2022/04/19 02:34:39;;;;;;;;;;;25.00;99.90;;;;;;4881275;29;19911;-76
2022/04/19 02:37:05;;;;;;;;;;;25.10;99.90;;;;;;4880964;29;19934;-77
2022/04/19 02:39:32;;;;;;;;;;;25.20;99.90;;;;;;4880755;29;20363;-76
2022/04/19 02:41:59;;;;;;;;;;;25.10;99.90;;;;;;4881058;29;19912;-77
2022/04/19 02:44:26;;;;;;;;;;;24.90;99.90;;;;;;4880857;29;19928;-75
2022/04/19 02:46:52;;;;;;;;;;;24.90;99.90;;;;;;4880714;29;19919;-77
2022/04/19 02:49:19;;;;;;;;;;;25.20;99.90;;;;;;4880758;29;19912;-76
2022/04/19 02:51:46;;;;;;;;;;;25.30;99.90;;;;;;4863823;29;20283;-76
2022/04/19 02:54:13;;;;;;;;;;;25.20;99.90;;;;;;4880569;29;19968;-77
2022/04/19 02:56:42;;;;;;;;;;;25.20;99.80;;;;;;4880704;29;19915;-74
2022/04/19 02:59:09;;;;;;;;;;;25.40;99.90;;;;;;4880796;29;19923;-74
2022/04/19 03:01:36;;;;;;;;;;;25.30;99.90;;;;;;4880204;29;19911;-75
2022/04/19 03:04:03;;;;;;;;;;;25.30;99.40;;;;;;4880256;29;20304;-75
2022/04/19 03:06:29;;;;;;;;;;;25.40;99.20;;;;;;4863916;29;19916;-74
2022/04/19 03:08:56;;;;;;;;;;;25.30;99.90;;;;;;4880562;29;20263;-75
2022/04/19 03:11:23;;;;;;;;;;;25.30;99.40;;;;;;4880451;29;19927;-76
2022/04/19 03:13:49;;;;;;;;;;;25.60;99.60;;;;;;4880198;29;19912;-74
2022/04/19 03:16:16;;;;;;;;;;;25.50;99.30;;;;;;4880295;29;19931;-76
2022/04/19 03:18:44;;;;;;;;;;;25.40;99.20;;;;;;4880351;29;19912;-75
2022/04/19 03:21:11;;;;;;;;;;;25.20;99.40;;;;;;4863625;29;20311;-75
2022/04/19 03:29:08;;;;;;;;;;;25.00;99.80;;;;;;4880452;29;20426;-75
2022/04/19 03:31:35;;;;;;;;;;;24.90;99.90;;;;;;4879889;29;19911;-76
2022/04/19 03:34:03;;;;;;;;;;;24.90;99.90;;;;;;4880054;29;19912;-75
2022/04/19 03:36:30;;;;;;;;;;;25.00;99.80;;;;;;4880178;29;19916;-75
2022/04/19 03:38:56;;;;;;;;;;;25.10;99.50;;;;;;4880117;29;20276;-75
2022/04/19 03:41:23;;;;;;;;;;;25.10;99.50;;;;;;4879873;29;20042;-76
2022/04/19 03:43:51;;;;;;;;;;;25.30;99.90;;;;;;4879762;29;20139;-74
2022/04/19 03:46:18;;;;;;;;;;;25.30;99.30;;;;;;4879812;29;20384;-75
2022/04/19 03:48:44;;;;;;;;;;;25.30;98.90;;;;;;4880158;29;19958;-74
2022/04/19 03:51:11;;;;;;;;;;;25.20;98.80;;;;;;4879825;29;20359;-75
2022/04/19 03:53:38;;;;;;;;;;;25.10;98.80;;;;;;4879528;29;20371;-75
2022/04/19 03:56:05;;;;;;;;;;;25.00;99.30;;;;;;4879681;29;20006;-75
2022/04/19 03:58:32;;;;;;;;;;;25.00;99.30;;;;;;4879664;29;19915;-76
2022/04/19 04:01:00;;;;;;;;;;;25.10;99.50;;;;;;4862938;29;19945;-75
2022/04/19 04:03:27;;;;;;;;;;;25.10;99.90;;;;;;4879475;29;20299;-75
2022/04/19 04:05:55;;;;;;;;;;;25.20;99.30;;;;;;4879379;29;19927;-75
2022/04/19 04:08:22;;;;;;;;;;;25.20;99.90;;;;;;4879478;29;19912;-75
2022/04/19 04:10:51;;;;;;;;;;;25.20;99.30;;;;;;4879509;29;20006;-75
2022/04/19 04:13:18;;;;;;;;;;;25.20;98.90;;;;;;4879696;29;19916;-75
2022/04/19 04:15:45;;;;;;;;;;;25.20;98.70;;;;;;4879401;29;19912;-75
2022/04/19 04:18:12;;;;;;;;;;;25.00;99.20;;;;;;4872218;29;19951;-75
2022/04/19 04:20:38;;;;;;;;;;;24.90;99.80;;;;;;4860204;29;20003;-76
2022/04/19 04:23:05;;;;;;;;;;;24.90;99.90;;;;;;4860133;29;19912;-75
2022/04/19 04:25:32;;;;;;;;;;;25.20;99.80;;;;;;4877093;29;19927;-76
2022/04/19 04:27:59;;;;;;;;;;;25.10;99.20;;;;;;4879674;29;19916;-74
2022/04/19 04:30:25;;;;;;;;;;;25.10;99.90;;;;;;4879561;29;19968;-75
2022/04/19 04:32:53;;;;;;;;;;;25.00;99.90;;;;;;4879279;29;19912;-75
2022/04/19 04:35:19;;;;;;;;;;;25.00;99.90;;;;;;4879436;29;19919;-75
2022/04/19 04:37:46;;;;;;;;;;;24.90;99.90;;;;;;4879124;29;19919;-74
2022/04/19 04:40:13;;;;;;;;;;;24.90;99.90;;;;;;4879386;29;19916;-76
2022/04/19 04:42:39;;;;;;;;;;;24.90;99.90;;;;;;4882178;29;20075;-76
2022/04/19 04:45:06;;;;;;;;;;;25.00;99.90;;;;;;4883124;29;20261;-75
2022/04/19 04:50:17;;;;;;;;;;;24.70;99.90;;;;;;4883045;29;19967;-75
2022/04/19 04:52:44;;;;;;;;;;;24.70;99.90;;;;;;4883188;29;19923;-75
2022/04/19 04:55:11;;;;;;;;;;;24.60;99.90;;;;;;4882920;29;19918;-74
2022/04/19 04:57:37;;;;;;;;;;;24.50;99.90;;;;;;4882721;29;19919;-75
2022/04/19 05:00:04;;;;;;;;;;;24.50;99.90;;;;;;4882861;29;19944;-75
2022/04/19 05:02:31;;;;;;;;;;;24.40;99.90;;;;;;4882867;29;20287;-75
2022/04/19 05:04:58;;;;;;;;;;;24.30;99.90;;;;;;4882870;29;19977;-75
2022/04/19 05:07:25;;;;;;;;;;;24.30;99.90;;;;;;4882670;29;19915;-75
2022/04/19 05:09:51;;;;;;;;;;;24.30;99.90;;;;;;4882413;29;19912;-76
2022/04/19 05:12:18;;;;;;;;;;;24.30;99.90;;;;;;4882896;29;19916;-76
2022/04/19 05:14:45;;;;;;;;;;;24.30;99.90;;;;;;4882546;29;19950;-76
2022/04/19 05:17:11;;;;;;;;;;;24.20;99.90;;;;;;4882772;29;19920;-74
2022/04/19 05:19:38;;;;;;;;;;;24.20;99.90;;;;;;4882565;29;19916;-75
2022/04/19 05:22:04;;;;;;;;;;;24.10;99.90;;;;;;4882451;29;20014;-75
2022/04/19 05:24:31;;;;;;;;;;;24.20;99.90;;;;;;4882580;29;19975;-75
2022/04/19 05:26:58;;;;;;;;;;;24.20;99.90;;;;;;4882311;29;20002;-75
2022/04/19 05:29:24;;;;;;;;;;;24.10;99.90;;;;;;4882202;29;19960;-74
2022/04/19 05:31:51;;;;;;;;;;;24.10;99.90;;;;;;4882262;29;19960;-74
2022/04/19 05:34:18;;;;;;;;;;;24.00;99.90;;;;;;4882603;29;19939;-74
2022/04/19 05:36:44;;;;;;;;;;;24.00;99.90;;;;;;4882395;29;19912;-74
2022/04/19 05:39:11;;;;;;;;;;;24.00;99.90;;;;;;4882608;29;20390;-74
2022/04/19 05:41:40;;;;;;;;;;;24.10;99.90;;;;;;4882975;29;20096;-74
2022/04/19 05:44:07;;;;;;;;;;;24.10;99.90;;;;;;4882733;29;19947;-74
2022/04/19 05:46:36;;;;;;;;;;;24.00;99.90;;;;;;4882507;29;20375;-74
2022/04/19 05:49:05;;;;;;;;;;;24.00;99.90;;;;;;4886813;29;20014;-74
2022/04/19 05:51:32;;;;;;;;;;;23.90;99.90;;;;;;4884168;29;20003;-74
2022/04/19 05:53:59;;;;;;;;;;;23.90;99.90;;;;;;4881697;29;19911;-75
2022/04/19 05:56:26;;;;;;;;;;;23.80;99.90;;;;;;4882732;29;19958;-76
2022/04/19 05:58:53;;;;;;;;;;;23.80;99.90;;;;;;4884340;29;20394;-75
2022/04/19 06:01:20;;;;;;;;;;;23.80;99.90;;;;;;4874728;29;19912;-75
2022/04/19 06:06:31;;;;;;;;;;;23.80;99.90;;;;;;4890960;29;19927;-75
2022/04/19 06:08:58;;;;;;;;;;;23.70;99.90;;;;;;4888648;29;19916;-77
2022/04/19 06:11:24;;;;;;;;;;;23.70;99.90;;;;;;4882146;29;19934;-76
2022/04/19 06:13:51;;;;;;;;;;;23.70;99.90;;;;;;4881593;29;19914;-77
2022/04/19 06:16:18;;;;;;;;;;;23.60;99.90;;;;;;4881991;29;19916;-77
2022/04/19 06:18:44;;;;;;;;;;;23.50;99.90;;;;;;4881669;29;19912;-76
2022/04/19 06:21:14;;;;;;;;;;;23.50;99.90;;;;;;4864835;29;20291;-74
2022/04/19 06:23:41;;;;;;;;;;;23.50;99.90;;;;;;4881316;29;19919;-77
2022/04/19 06:26:07;;;;;;;;;;;23.40;99.90;;;;;;4881178;29;19920;-77
2022/04/19 06:28:34;;;;;;;;;;;23.40;99.90;;;;;;4881392;29;19998;-78
2022/04/19 06:31:01;;;;;;;;;;;23.40;99.90;;;;;;4881718;29;20072;-76
2022/04/19 06:33:27;;;;;;;;;;;23.30;99.90;;;;;;4881449;29;19939;-77
2022/04/19 06:35:54;;;;;;;;;;;23.20;99.90;;;;;;4880991;29;20481;-77
2022/04/19 06:38:21;;;;;;;;;;;23.10;99.90;;;;;;4881247;29;19997;-77
2022/04/19 06:40:48;;;;;;;;;;;23.10;99.90;;;;;;4880822;29;20443;-75
2022/04/19 06:43:14;;;;;;;;;;;23.10;99.90;;;;;;4881063;29;19912;-77
2022/04/19 06:45:43;;;;;;;;;;;23.10;99.90;;;;;;4880463;29;19943;-76
2022/04/19 06:48:10;;;;;;;;;;;23.00;99.90;;;;;;4881055;29;20052;-75
2022/04/19 06:50:37;;;;;;;;;;;22.90;99.90;;;;;;4880478;29;20378;-77
2022/04/19 06:53:03;;;;;;;;;;;22.90;99.90;;;;;;4878213;29;19911;-78
2022/04/19 06:55:31;;;;;;;;;;;22.90;99.90;;;;;;4878777;29;19912;-76
2022/04/19 06:57:57;;;;;;;;;;;22.80;99.90;;;;;;4878920;29;20364;-78
2022/04/19 07:00:24;;;;;;;;;;;22.80;99.90;;;;;;4878640;29;20026;-78
2022/04/19 07:02:51;;;;;;;;;;;22.80;99.90;;;;;;4878466;29;19972;-78
2022/04/19 07:05:17;;;;;;;;;;;22.80;99.90;;;;;;4877790;29;20321;-77
2022/04/19 07:07:44;;;;;;;;;;;22.70;99.90;;;;;;4878147;29;20039;-77
2022/04/19 07:10:11;;;;;;;;;;;22.80;99.90;;;;;;4878471;29;19916;-78
2022/04/19 07:12:39;;;;;;;;;;;22.80;99.90;;;;;;4878422;29;19941;-77
2022/04/19 07:15:06;;;;;;;;;;;22.70;99.90;;;;;;4878309;29;19916;-76
2022/04/19 07:17:32;;;;;;;;;;;22.70;99.90;;;;;;4877961;29;19974;-75
2022/04/19 07:28:15;;;;;;;;;;;22.60;99.90;;;;;;4878601;29;20463;-77
2022/04/19 07:30:43;;;;;;;;;;;22.60;99.90;;;;;;4877739;29;19980;-76
2022/04/19 07:33:10;;;;;;;;;;;22.60;99.90;;;;;;4877975;29;19912;-77
2022/04/19 07:35:37;;;;;;;;;;;22.60;99.90;;;;;;4877675;29;19912;-77
2022/04/19 07:38:03;;;;;;;;;;;22.50;99.90;;;;;;4877977;29;19912;-77
2022/04/19 07:40:30;;;;;;;;;;;22.50;99.90;;;;;;4877834;29;19919;-77
2022/04/19 07:42:57;;;;;;;;;;;22.60;99.90;;;;;;4877811;29;19916;-77
2022/04/19 07:45:23;;;;;;;;;;;22.50;99.90;;;;;;4877223;29;19924;-76
2022/04/19 07:47:50;;;;;;;;;;;22.50;99.90;;;;;;4877373;29;20287;-75
2022/04/19 07:50:17;;;;;;;;;;;22.50;99.90;;;;;;4877752;29;19923;-75
2022/04/19 07:52:43;;;;;;;;;;;22.50;99.90;;;;;;4877723;29;19911;-75
2022/04/19 07:55:10;;;;;;;;;;;22.50;99.90;;;;;;4877920;29;20268;-75
2022/04/19 07:57:37;;;;;;;;;;;22.40;99.90;;;;;;4877343;29;19912;-75
2022/04/19 08:00:04;;;;;;;;;;;22.40;99.90;;;;;;4877621;29;19969;-76
2022/04/19 08:02:30;;;;;;;;;;;22.40;99.90;;;;;;4877582;29;20367;-75
2022/04/19 08:04:57;;;;;;;;;;;22.40;99.90;;;;;;4877634;29;19952;-77
2022/04/19 08:07:24;;;;;;;;;;;22.30;99.90;;;;;;4877791;29;20401;-76
2022/04/19 08:09:51;;;;;;;;;;;22.30;99.90;;;;;;4877086;29;19923;-77
2022/04/19 08:12:17;;;;;;;;;;;22.30;99.90;;;;;;4877702;29;20002;-76
2022/04/19 08:14:44;;;;;;;;;;;22.30;99.90;;;;;;4865335;29;19959;-76
2022/04/19 08:17:11;;;;;;;;;;;22.40;99.90;;;;;;4858622;29;19919;-76
2022/04/19 08:19:37;;;;;;;;;;;22.30;99.90;;;;;;4859219;29;19919;-73
2022/04/19 08:22:04;;;;;;;;;;;22.30;99.90;;;;;;4859055;29;20396;-76
2022/04/19 08:24:31;;;;;;;;;;;22.30;99.90;;;;;;4858437;29;19916;-76
2022/04/19 08:26:57;;;;;;;;;;;22.30;99.90;;;;;;4858807;29;19916;-77
2022/04/19 08:29:24;;;;;;;;;;;22.20;99.90;;;;;;4858957;29;19916;-75
2022/04/19 08:31:51;;;;;;;;;;;22.20;99.90;;;;;;4857524;29;19919;-75
2022/04/19 08:34:18;;;;;;;;;;;22.20;99.90;;;;;;4858927;29;20134;-77
2022/04/19 08:36:44;;;;;;;;;;;22.20;99.90;;;;;;4857868;29;20037;-75
2022/04/19 08:39:11;;;;;;;;;;;22.20;99.90;;;;;;4858751;29;19919;-76
2022/04/19 08:41:39;;;;;;;;;;;22.20;99.90;;;;;;4858626;29;19916;-75
2022/04/19 08:44:06;;;;;;;;;;;22.10;99.90;;;;;;4858706;29;20022;-74
2022/04/19 08:46:33;;;;;;;;;;;22.10;99.90;;;;;;4858831;29;19943;-77
2022/04/19 08:49:04;;;;;;;;;;;22.00;99.90;;;;;;4858416;29;19919;-75
2022/04/19 08:51:33;;;;;;;;;;;22.00;99.90;;;;;;4858024;29;19916;-75
2022/04/19 08:59:45;;;;;;;;;;;22.00;99.90;;;;;;4858703;29;19919;-77
2022/04/19 09:02:22;;;;;;;;;;;22.00;99.90;;;;;;4857720;29;19935;-75
2022/04/19 09:04:50;;;;;;;;;;;22.00;99.90;;;;;;4822176;29;19924;-75
2022/04/19 09:07:17;;;;;;;;;;;22.10;99.90;;;;;;4824185;29;19917;-76
2022/04/19 09:09:56;;;;;;;;;;;22.00;99.90;;;;;;4823865;29;19913;-75
2022/04/19 09:12:23;;;;;;;;;;;22.10;99.90;;;;;;4824166;29;20046;-75
2022/04/19 09:14:56;;;;;;;;;;;22.00;99.90;;;;;;4823919;29;19982;-77
2022/04/19 09:17:32;;;;;;;;;;;22.00;99.90;;;;;;4824047;29;19913;-75
2022/04/19 09:20:19;;;;;;;;;;;22.00;99.90;;;;;;4824081;29;20384;-76
2022/04/19 09:22:48;;;;;;;;;;;22.00;99.90;;;;;;4824023;29;20393;-75
2022/04/19 09:25:18;;;;;;;;;;;22.00;99.90;;;;;;4823868;29;19942;-77
2022/04/19 09:27:49;;;;;;;;;;;22.00;99.90;;;;;;4824730;29;19920;-75
2022/04/19 09:30:19;;;;;;;;;;;22.00;99.90;;;;;;4827162;29;19913;-75
2022/04/19 09:33:04;;;;;;;;;;;21.90;99.90;;;;;;4827056;29;19967;-75
2022/04/19 09:35:31;;;;;;;;;;;21.90;99.90;;;;;;4826824;29;19913;-75
2022/04/19 09:37:58;;;;;;;;;;;21.90;99.90;;;;;;4827133;29;20369;-75
2022/04/19 09:40:32;;;;;;;;;;;21.90;99.90;;;;;;4827043;29;19913;-75
2022/04/19 09:43:06;;;;;;;;;;;21.90;99.90;;;;;;4826746;29;20346;-76
2022/04/19 09:45:44;;;;;;;;;;;21.90;99.90;;;;;;4826456;29;19921;-75
2022/04/19 09:48:24;;;;;;;;;;;21.90;99.90;;;;;;4826746;29;19913;-75
2022/04/19 09:50:52;;;;;;;;;;;21.90;99.90;;;;;;4826602;29;19949;-74
2022/04/19 09:53:21;;;;;;;;;;;21.90;99.90;;;;;;4826674;29;20007;-76
2022/04/19 09:55:49;;;;;;;;;;;21.80;99.90;;;;;;4826401;29;19923;-76
2022/04/19 09:58:16;;;;;;;;;;;21.90;99.90;;;;;;4826629;29;19913;-76
2022/04/19 10:00:44;;;;;;;;;;;21.80;99.90;;;;;;4826607;29;19984;-73
2022/04/19 10:08:45;;;;;;;;;;;21.80;99.90;;;;;;4863376;29;19920;-75
2022/04/19 10:11:13;;;;;;;;;;;21.80;99.90;;;;;;4862991;29;19923;-76
2022/04/19 10:13:40;;;;;;;;;;;21.80;99.90;;;;;;4862649;29;19918;-75
2022/04/19 10:16:14;;;;;;;;;;;21.80;99.90;;;;;;4863257;29;20371;-75
2022/04/19 10:18:41;;;;;;;;;;;21.80;99.90;;;;;;4862853;29;20052;-75
2022/04/19 10:21:09;;;;;;;;;;;21.80;99.90;;;;;;4862759;29;20274;-75
2022/04/19 10:23:37;;;;;;;;;;;21.80;99.90;;;;;;4862497;29;20312;-76
2022/04/19 10:26:18;;;;;;;;;;;21.80;99.90;;;;;;4862309;29;20376;-75
2022/04/19 10:28:45;;;;;;;;;;;21.80;99.90;;;;;;4862762;29;19912;-75
2022/04/19 10:31:12;;;;;;;;;;;21.80;99.90;;;;;;4862816;29;19932;-75
2022/04/19 10:33:39;;;;;;;;;;;21.80;99.90;;;;;;4862486;29;19954;-75
2022/04/19 10:36:10;;;;;;;;;;;21.70;99.90;;;;;;4862730;29;20353;-75
2022/04/19 10:38:37;;;;;;;;;;;21.80;99.90;;;;;;4862173;29;19912;-75
2022/04/19 10:41:03;;;;;;;;;;;21.80;99.90;;;;;;4862341;29;19963;-74
2022/04/19 10:43:30;;;;;;;;;;;21.80;99.90;;;;;;4862510;29;20029;-74
2022/04/19 10:46:19;;;;;;;;;;;21.80;99.90;;;;;;4862411;29;19920;-75
2022/04/19 10:49:04;;;;;;;;;;;21.80;99.90;;;;;;4862451;29;19912;-75
2022/04/19 10:51:30;;;;;;;;;;;21.80;99.90;;;;;;4862384;29;19912;-75
2022/04/19 10:53:57;;;;;;;;;;;21.80;99.90;;;;;;4860725;29;19912;-75
2022/04/19 10:56:24;;;;;;;;;;;21.80;99.90;;;;;;4862414;29;19992;-75
2022/04/19 10:58:50;;;;;;;;;;;21.90;99.90;;;;;;4862143;29;19912;-74
2022/04/19 11:01:31;;;;;;;;;;;21.80;99.90;;;;;;4862406;29;19916;-74
2022/04/19 11:03:59;;;;;;;;;;;21.80;99.90;;;;;;4862256;29;19976;-74
2022/04/19 11:06:31;;;;;;;;;;;21.80;99.90;;;;;;4862276;29;19975;-74
2022/04/19 11:09:19;;;;;;;;;;;21.90;99.90;;;;;;4861546;29;20007;-77
2022/04/19 11:11:50;;;;;;;;;;;21.90;99.90;;;;;;4861878;29;19920;-77
2022/04/19 11:14:21;;;;;;;;;;;21.80;99.90;;;;;;4861828;29;19944;-77
2022/04/19 11:16:51;;;;;;;;;;;21.90;99.90;;;;;;4861952;29;19912;-77
2022/04/19 11:19:20;;;;;;;;;;;21.90;99.90;;;;;;4861889;29;20368;-77
2022/04/19 11:21:48;;;;;;;;;;;21.80;99.90;;;;;;4860532;29;20249;-77
2022/04/19 11:24:33;;;;;;;;;;;21.90;99.90;;;;;;4861308;29;20324;-77
2022/04/19 11:27:00;;;;;;;;;;;21.90;99.90;;;;;;4861884;29;20011;-76
2022/04/19 11:29:26;;;;;;;;;;;21.90;99.90;;;;;;4861700;29;19912;-77
2022/04/19 11:31:53;;;;;;;;;;;21.90;99.90;;;;;;4861159;29;19912;-76
2022/04/19 11:34:20;;;;;;;;;;;21.80;99.90;;;;;;4861519;29;19912;-79
2022/04/19 11:36:46;;;;;;;;;;;21.90;99.90;;;;;;4860369;29;20505;-77
2022/04/19 11:47:58;;;;;;;;;;;18.70;99.90;;;;;;4862019;29;19962;-75
2022/04/19 11:50:26;;;;;;;;;;;18.10;99.90;;;;;;4861227;29;19912;-75
2022/04/19 11:52:52;;;;;;;;;;;17.80;99.90;;;;;;4861129;29;19973;-75
2022/04/19 11:55:24;;;;;;;;;;;17.70;99.90;;;;;;4861361;29;19913;-75
2022/04/19 11:58:06;;;;;;;;;;;17.60;99.90;;;;;;4861245;29;19916;-74
2022/04/19 12:00:33;;;;;;;;;;;17.40;99.90;;;;;;4861382;29;19951;-75
2022/04/19 12:03:03;;;;;;;;;;;17.60;99.90;;;;;;4861143;29;20295;-74
2022/04/19 12:05:30;;;;;;;;;;;17.60;99.90;;;;;;4861309;29;20375;-74
2022/04/19 12:07:57;;;;;;;;;;;17.60;99.90;;;;;;4861514;29;19919;-75
2022/04/19 12:10:24;;;;;;;;;;;17.70;99.90;;;;;;4861357;29;20056;-74
2022/04/19 12:12:52;;;;;;;;;;;17.60;99.90;;;;;;4860912;29;19913;-74
2022/04/19 12:15:41;;;;;;;;;;;17.60;99.90;;;;;;4860957;29;19916;-74
2022/04/19 12:18:09;;;;;;;;;;;17.50;99.90;;;;;;4861120;29;19912;-75
2022/04/19 12:20:43;;;;;;;;;;;17.60;99.90;;;;;;4861075;29;19936;-75
2022/04/19 12:23:19;;;;;;;;;;;17.70;99.90;;;;;;4860929;29;19912;-76
2022/04/19 12:25:58;;;;;;;;;;;17.70;99.90;;;;;;4860817;29;19920;-75
2022/04/19 12:28:57;;;;;;;;;;;17.70;99.90;;;;;;4860967;29;20380;-75
2022/04/19 12:31:30;;;;;;;;;;;17.60;99.90;;;;;;4849673;29;19947;-75
2022/04/19 12:33:58;;;;;;;;;;;17.60;99.90;;;;;;4861041;29;19913;-76
2022/04/19 12:36:31;;;;;;;;;;;17.60;99.90;;;;;;4861234;29;19919;-74
2022/04/19 12:39:01;;;;;;;;;;;17.60;99.90;;;;;;4859458;29;19916;-76
2022/04/19 12:41:35;;;;;;;;;;;17.60;99.90;;;;;;4861034;29;20292;-76
2022/04/19 12:44:02;;;;;;;;;;;17.70;99.90;;;;;;4860989;29;19919;-75
2022/04/19 12:46:30;;;;;;;;;;;17.60;99.90;;;;;;4861005;29;19924;-76
2022/04/19 12:48:57;;;;;;;;;;;17.50;99.90;;;;;;4860941;29;20048;-75
2022/04/19 12:51:24;;;;;;;;;;;17.50;99.90;;;;;;4861072;29;19988;-75
2022/04/19 12:54:01;;;;;;;;;;;17.60;99.90;;;;;;4860988;29;19916;-75
2022/04/19 12:56:55;;;;;;;;;;;17.60;99.90;;;;;;4860220;29;19988;-75
2022/04/19 12:59:22;;;;;;;;;;;17.60;99.90;;;;;;4860515;29;19918;-76
2022/04/19 13:01:48;;;;;;;;;;;17.60;99.90;;;;;;4860596;29;19948;-76
2022/04/19 13:04:15;;;;;;;;;;;17.50;99.90;;;;;;4866220;29;19980;-75
2022/04/19 13:12:17;;;;;;;;;;;17.60;99.90;;;;;;4865398;29;20011;-75
2022/04/19 13:14:44;;;;;;;;;;;17.60;99.90;;;;;;4865129;29;20357;-74
2022/04/19 13:17:14;;;;;;;;;;;17.60;99.90;;;;;;4870803;29;19923;-75
2022/04/19 13:19:41;;;;;;;;;;;17.60;99.90;;;;;;4871903;29;19920;-75
2022/04/19 13:22:08;;;;;;;;;;;17.50;99.90;;;;;;4870386;29;19912;-75
2022/04/19 13:24:36;;;;;;;;;;;17.50;99.90;;;;;;4864960;29;20288;-76
2022/04/19 13:27:03;;;;;;;;;;;17.50;99.90;;;;;;4864232;29;20019;-74
2022/04/19 13:29:30;;;;;;;;;;;17.50;99.90;;;;;;4864530;29;19960;-74
2022/04/19 13:31:57;;;;;;;;;;;17.50;99.90;;;;;;4864572;29;19913;-74
2022/04/19 13:34:24;;;;;;;;;;;17.50;99.90;;;;;;4864158;29;19912;-74
2022/04/19 13:36:51;;;;;;;;;;;17.40;99.90;;;;;;4864074;29;19956;-74
2022/04/19 13:39:17;;;;;;;;;;;17.40;99.90;;;;;;4863944;29;20006;-73
2022/04/19 13:41:44;;;;;;;;;;;17.50;99.90;;;;;;4863444;29;19913;-74
2022/04/19 13:44:11;;;;;;;;;;;17.50;99.90;;;;;;4863810;29;19912;-74
2022/04/19 13:46:38;;;;;;;;;;;17.50;99.90;;;;;;4863619;29;19927;-74
2022/04/19 13:49:05;;;;;;;;;;;17.60;99.90;;;;;;4863519;29;19912;-75
2022/04/19 13:51:32;;;;;;;;;;;17.50;99.90;;;;;;4863524;29;19952;-76
2022/04/19 13:53:59;;;;;;;;;;;17.60;99.90;;;;;;4863622;29;19948;-75
2022/04/19 13:56:26;;;;;;;;;;;17.60;99.90;;;;;;4863364;29;19921;-74
2022/04/19 13:58:54;;;;;;;;;;;17.60;99.90;;;;;;4863535;29;19960;-73
2022/04/19 14:01:26;;;;;;;;;;;17.60;99.90;;;;;;4863327;29;19935;-74
2022/04/19 14:03:52;;;;;;;;;;;17.70;99.90;;;;;;4863076;29;19924;-75
2022/04/19 14:06:20;;;;;;;;;;;17.60;99.90;;;;;;4863281;29;19931;-76
2022/04/19 14:08:47;;;;;;;;;;;17.60;99.90;;;;;;4861979;29;19916;-76
2022/04/19 14:11:14;;;;;;;;;;;17.70;99.90;;;;;;4863274;29;20003;-75
2022/04/19 14:13:40;;;;;;;;;;;17.70;99.90;;;;;;4862275;29;19952;-76
2022/04/19 14:16:08;;;;;;;;;;;17.70;99.90;;;;;;4863001;29;20329;-74
2022/04/19 14:18:35;;;;;;;;;;;17.70;99.90;;;;;;4863054;29;19913;-74
2022/04/19 14:21:02;;;;;;;;;;;17.80;99.90;;;;;;4863062;29;19916;-73
2022/04/19 14:23:29;;;;;;;;;;;17.70;99.90;;;;;;4862906;29;19931;-76
2022/04/19 14:25:55;;;;;;;;;;;17.70;99.90;;;;;;4862804;29;19920;-75
2022/04/19 14:33:15;;;;;;;;;;;17.80;99.90;;;;;;4862780;29;19913;-73
2022/04/19 14:33:53;;;;;;;;;;;17.70;99.90;;;;;;4862716;29;19984;-74
2022/04/19 14:36:20;;;;;;;;;;;17.60;99.90;;;;;;4862603;29;19959;-74
2022/04/19 14:38:47;;;;;;;;;;;17.60;99.90;;;;;;4862650;29;19912;-73
2022/04/19 14:41:14;;;;;;;;;;;17.60;99.90;;;;;;4862601;29;19912;-73
2022/04/19 14:43:41;;;;;;;;;;;17.50;99.90;;;;;;4862375;29;19968;-74
2022/04/19 14:46:07;;;;;;;;;;;17.60;99.90;;;;;;4862475;29;19920;-75
2022/04/19 14:48:34;;;;;;;;;;;17.50;99.90;;;;;;4862488;29;19968;-74
2022/04/19 14:53:45;;;;;;;;;;;17.60;99.90;;;;;;4862662;29;20035;-76
2022/04/19 14:56:12;;;;;;;;;;;17.60;99.90;;;;;;4862562;29;20623;-75
2022/04/19 14:58:38;;;;;;;;;;;17.60;99.90;;;;;;4862557;29;19916;-74
2022/04/19 15:01:05;;;;;;;;;;;17.60;99.90;;;;;;4862471;29;19920;-76
2022/04/19 15:03:32;;;;;;;;;;;17.60;99.90;;;;;;4861922;29;19928;-76
2022/04/19 15:05:58;;;;;;;;;;;17.60;99.90;;;;;;4862028;29;20273;-75
2022/04/19 15:08:27;;;;;;;;;;;17.60;99.90;;;;;;4862166;29;20360;-77
2022/04/19 15:10:53;;;;;;;;;;;17.60;99.90;;;;;;4862313;29;19973;-75
2022/04/19 15:13:20;;;;;;;;;;;17.70;99.90;;;;;;4861978;29;19913;-76
2022/04/19 15:15:47;;;;;;;;;;;17.60;99.90;;;;;;4861931;29;19940;-74